Weather at Dos Arroyos Ranch Airport

Public forecast

Using degrees Fahrenheit for public forecast. Weather courtesy of forecast.io.

Closest aviation weather report (METAR) to Dos Arroyos Ranch Airport

Closest report is Kerrville Municipal Louis Schreiner Field, 15.3 nm (28.4 km) SE. Retrieved 2021/01/18 12:35 UTC (5 minutes ago):

KERV 181235Z AUTO 00000KT 10SM OVC005 06/04 A3003 RMK AO2 T00630040

Closest aviation forecast (TAF) to Dos Arroyos Ranch Airport

Closest forecast is Kimble County Airport, 32.3 nm (59.8 km) NW. Retrieved 2021/01/18 12:24 UTC (16 minutes ago):

TAF KJCT 181122Z 1812/1912 28003KT P6SM BKN009 FM181400 25003KT P6SM BKN011 FM181600 20007KT P6SM SCT015 FM181700 20016G21KT P6SM SKC FM182300 20010KT P6SM SKC FM190000 VRB04KT P6SM BKN250 FM190700 03005KT P6SM BKN019